sensor_id;sensor_type;location;lat;lon;timestamp;temperature;humidity
4207;DHT22;2117;47.972;7.830;2024-01-06T00:00:50;7.40;99.90
4207;DHT22;2117;47.972;7.830;2024-01-06T00:03:16;7.40;99.90
4207;DHT22;2117;47.972;7.830;2024-01-06T00:05:41;7.40;99.90
4207;DHT22;2117;47.972;7.830;2024-01-06T00:08:07;7.50;99.90
4207;DHT22;2117;47.972;7.830;2024-01-06T00:10:32;7.40;99.90
4207;DHT22;2117;47.972;7.830;2024-01-06T00:12:58;7.40;99.90
4207;DHT22;2117;47.972;7.830;2024-01-06T00:15:24;7.40;99.90
4207;DHT22;2117;47.972;7.830;2024-01-06T00:17:49;7.40;99.90
4207;DHT22;2117;47.972;7.830;2024-01-06T00:20:15;7.40;99.90
4207;DHT22;2117;47.972;7.830;2024-01-06T00:22:40;7.30;99.90
4207;DHT22;2117;47.972;7.830;2024-01-06T00:25:08;7.40;99.90
4207;DHT22;2117;47.972;7.830;2024-01-06T00:27:33;7.40;99.90
4207;DHT22;2117;47.972;7.830;2024-01-06T00:29:59;7.40;99.90
4207;DHT22;2117;47.972;7.830;2024-01-06T00:32:24;7.40;99.90
4207;DHT22;2117;47.972;7.830;2024-01-06T00:34:50;7.40;99.90
4207;DHT22;2117;47.972;7.830;2024-01-06T00:37:15;7.40;99.90
4207;DHT22;2117;47.972;7.830;2024-01-06T00:39:41;7.40;99.90
4207;DHT22;2117;47.972;7.830;2024-01-06T00:42:06;7.40;99.90
4207;DHT22;2117;47.972;7.830;2024-01-06T00:44:34;7.40;99.90
4207;DHT22;2117;47.972;7.830;2024-01-06T00:47:00;7.30;99.90
4207;DHT22;2117;47.972;7.830;2024-01-06T00:49:25;7.30;99.90
4207;DHT22;2117;47.972;7.830;2024-01-06T00:51:51;7.30;99.90
4207;DHT22;2117;47.972;7.830;2024-01-06T00:54:17;7.30;99.90
4207;DHT22;2117;47.972;7.830;2024-01-06T00:56:42;7.30;99.90
4207;DHT22;2117;47.972;7.830;2024-01-06T00:59:08;7.30;99.90
4207;DHT22;2117;47.972;7.830;2024-01-06T01:01:34;7.30;99.90
4207;DHT22;2117;47.972;7.830;2024-01-06T01:04:00;7.20;99.90
4207;DHT22;2117;47.972;7.830;2024-01-06T01:06:25;7.30;99.90
4207;DHT22;2117;47.972;7.830;2024-01-06T01:08:51;7.30;99.90
4207;DHT22;2117;47.972;7.830;2024-01-06T01:11:16;7.20;99.90
4207;DHT22;2117;47.972;7.830;2024-01-06T01:13:42;7.20;99.90
4207;DHT22;2117;47.972;7.830;2024-01-06T01:16:07;7.20;99.90
4207;DHT22;2117;47.972;7.830;2024-01-06T01:18:33;7.10;99.90
4207;DHT22;2117;47.972;7.830;2024-01-06T01:20:59;7.10;99.90
4207;DHT22;2117;47.972;7.830;2024-01-06T01:23:24;7.10;99.90
4207;DHT22;2117;47.972;7.830;2024-01-06T01:25:50;7.20;99.90
4207;DHT22;2117;47.972;7.830;2024-01-06T01:28:15;7.10;99.90
4207;DHT22;2117;47.972;7.830;2024-01-06T01:30:41;7.10;99.90
4207;DHT22;2117;47.972;7.830;2024-01-06T01:33:06;7.10;99.90
4207;DHT22;2117;47.972;7.830;2024-01-06T01:35:32;7.10;99.90
4207;DHT22;2117;47.972;7.830;2024-01-06T01:37:57;7.00;99.90
4207;DHT22;2117;47.972;7.830;2024-01-06T01:40:24;7.10;99.90
4207;DHT22;2117;47.972;7.830;2024-01-06T01:42:49;7.10;99.90
4207;DHT22;2117;47.972;7.830;2024-01-06T01:45:15;7.00;99.90
4207;DHT22;2117;47.972;7.830;2024-01-06T01:47:40;7.00;99.90
4207;DHT22;2117;47.972;7.830;2024-01-06T01:50:07;7.00;99.90
4207;DHT22;2117;47.972;7.830;2024-01-06T01:52:35;7.00;99.90
4207;DHT22;2117;47.972;7.830;2024-01-06T01:55:01;7.00;99.90
4207;DHT22;2117;47.972;7.830;2024-01-06T01:57:27;6.90;99.90
4207;DHT22;2117;47.972;7.830;2024-01-06T01:59:54;6.90;99.90
4207;DHT22;2117;47.972;7.830;2024-01-06T02:02:21;6.90;99.90
4207;DHT22;2117;47.972;7.830;2024-01-06T02:04:47;6.90;99.90
4207;DHT22;2117;47.972;7.830;2024-01-06T02:07:13;6.90;99.90
4207;DHT22;2117;47.972;7.830;2024-01-06T02:09:38;6.80;99.90
4207;DHT22;2117;47.972;7.830;2024-01-06T02:12:04;6.80;99.90
4207;DHT22;2117;47.972;7.830;2024-01-06T02:14:30;6.80;99.90
4207;DHT22;2117;47.972;7.830;2024-01-06T02:16:58;6.80;99.90
4207;DHT22;2117;47.972;7.830;2024-01-06T02:19:23;6.80;99.90
4207;DHT22;2117;47.972;7.830;2024-01-06T02:21:52;6.80;99.90
4207;DHT22;2117;47.972;7.830;2024-01-06T02:24:18;6.80;99.90
4207;DHT22;2117;47.972;7.830;2024-01-06T02:26:44;6.80;99.90
4207;DHT22;2117;47.972;7.830;2024-01-06T02:29:10;6.80;99.90
4207;DHT22;2117;47.972;7.830;2024-01-06T02:31:35;6.70;99.90
4207;DHT22;2117;47.972;7.830;2024-01-06T02:34:01;6.60;99.90
4207;DHT22;2117;47.972;7.830;2024-01-06T02:36:26;6.60;99.90
4207;DHT22;2117;47.972;7.830;2024-01-06T02:38:52;6.60;99.90
4207;DHT22;2117;47.972;7.830;2024-01-06T02:41:17;6.60;99.90
4207;DHT22;2117;47.972;7.830;2024-01-06T02:43:43;6.60;99.90
4207;DHT22;2117;47.972;7.830;2024-01-06T02:46:08;6.60;99.90
4207;DHT22;2117;47.972;7.830;2024-01-06T02:48:34;6.60;99.90
4207;DHT22;2117;47.972;7.830;2024-01-06T02:50:59;6.70;99.90
4207;DHT22;2117;47.972;7.830;2024-01-06T02:53:25;6.70;99.90
4207;DHT22;2117;47.972;7.830;2024-01-06T02:55:50;6.70;99.90
4207;DHT22;2117;47.972;7.830;2024-01-06T02:58:16;6.70;99.90
4207;DHT22;2117;47.972;7.830;2024-01-06T03:00:42;6.70;99.90
4207;DHT22;2117;47.972;7.830;2024-01-06T03:03:07;6.70;99.90
4207;DHT22;2117;47.972;7.830;2024-01-06T03:05:33;6.60;99.90
4207;DHT22;2117;47.972;7.830;2024-01-06T03:07:58;6.70;99.90
4207;DHT22;2117;47.972;7.830;2024-01-06T03:10:24;6.60;99.90
4207;DHT22;2117;47.972;7.830;2024-01-06T03:12:49;6.60;99.90
4207;DHT22;2117;47.972;7.830;2024-01-06T03:15:15;6.60;99.90
4207;DHT22;2117;47.972;7.830;2024-01-06T03:17:41;6.60;99.90
4207;DHT22;2117;47.972;7.830;2024-01-06T03:20:07;6.50;99.90
4207;DHT22;2117;47.972;7.830;2024-01-06T03:22:33;6.50;99.90
4207;DHT22;2117;47.972;7.830;2024-01-06T03:24:58;6.40;99.90
4207;DHT22;2117;47.972;7.830;2024-01-06T03:27:24;6.50;99.90
4207;DHT22;2117;47.972;7.830;2024-01-06T03:29:50;6.40;99.90
4207;DHT22;2117;47.972;7.830;2024-01-06T03:32:15;6.40;99.90
4207;DHT22;2117;47.972;7.830;2024-01-06T03:34:41;6.30;99.90
4207;DHT22;2117;47.972;7.830;2024-01-06T03:37:07;6.30;99.90
4207;DHT22;2117;47.972;7.830;2024-01-06T03:39:33;6.30;99.90
4207;DHT22;2117;47.972;7.830;2024-01-06T03:42:00;6.30;99.90
4207;DHT22;2117;47.972;7.830;2024-01-06T03:44:25;6.30;99.90
4207;DHT22;2117;47.972;7.830;2024-01-06T03:46:56;6.30;99.90
4207;DHT22;2117;47.972;7.830;2024-01-06T03:49:23;6.20;99.90
4207;DHT22;2117;47.972;7.830;2024-01-06T03:51:49;6.20;99.90
4207;DHT22;2117;47.972;7.830;2024-01-06T03:54:14;6.20;99.90
4207;DHT22;2117;47.972;7.830;2024-01-06T03:56:40;6.20;99.90
4207;DHT22;2117;47.972;7.830;2024-01-06T03:59:06;6.20;99.90
4207;DHT22;2117;47.972;7.830;2024-01-06T04:01:31;6.20;99.90
4207;DHT22;2117;47.972;7.830;2024-01-06T04:04:00;6.20;99.90
4207;DHT22;2117;47.972;7.830;2024-01-06T04:06:26;6.30;99.90
4207;DHT22;2117;47.972;7.830;2024-01-06T04:08:52;6.20;99.90
4207;DHT22;2117;47.972;7.830;2024-01-06T04:11:20;6.20;99.90
4207;DHT22;2117;47.972;7.830;2024-01-06T04:13:46;6.30;99.90
4207;DHT22;2117;47.972;7.830;2024-01-06T04:16:12;6.30;99.90
4207;DHT22;2117;47.972;7.830;2024-01-06T04:18:37;6.20;99.90
4207;DHT22;2117;47.972;7.830;2024-01-06T04:21:03;6.20;99.90
4207;DHT22;2117;47.972;7.830;2024-01-06T04:23:30;6.30;99.90
4207;DHT22;2117;47.972;7.830;2024-01-06T04:25:56;6.20;99.90
4207;DHT22;2117;47.972;7.830;2024-01-06T04:28:21;6.30;99.90
4207;DHT22;2117;47.972;7.830;2024-01-06T04:30:47;6.30;99.90
4207;DHT22;2117;47.972;7.830;2024-01-06T04:33:13;6.30;99.90
4207;DHT22;2117;47.972;7.830;2024-01-06T04:35:38;6.30;99.90
4207;DHT22;2117;47.972;7.830;2024-01-06T04:38:04;6.20;99.90
4207;DHT22;2117;47.972;7.830;2024-01-06T04:40:30;6.20;99.90
4207;DHT22;2117;47.972;7.830;2024-01-06T04:42:55;6.20;99.90
4207;DHT22;2117;47.972;7.830;2024-01-06T04:45:21;6.10;99.90
4207;DHT22;2117;47.972;7.830;2024-01-06T04:47:49;6.10;99.90
4207;DHT22;2117;47.972;7.830;2024-01-06T04:50:15;6.10;99.90
4207;DHT22;2117;47.972;7.830;2024-01-06T04:52:41;6.10;99.90
4207;DHT22;2117;47.972;7.830;2024-01-06T04:55:06;6.10;99.90
4207;DHT22;2117;47.972;7.830;2024-01-06T04:57:32;6.10;99.90
4207;DHT22;2117;47.972;7.830;2024-01-06T04:59:58;6.10;99.90
4207;DHT22;2117;47.972;7.830;2024-01-06T05:02:25;6.20;99.90
4207;DHT22;2117;47.972;7.830;2024-01-06T05:04:51;6.20;99.90
4207;DHT22;2117;47.972;7.830;2024-01-06T05:07:16;6.20;99.90
4207;DHT22;2117;47.972;7.830;2024-01-06T05:09:42;6.20;99.90
4207;DHT22;2117;47.972;7.830;2024-01-06T05:12:08;6.10;99.90
4207;DHT22;2117;47.972;7.830;2024-01-06T05:14:33;6.10;99.90
4207;DHT22;2117;47.972;7.830;2024-01-06T05:16:59;6.20;99.90
4207;DHT22;2117;47.972;7.830;2024-01-06T05:19:25;6.20;99.90
4207;DHT22;2117;47.972;7.830;2024-01-06T05:21:50;6.20;99.90
4207;DHT22;2117;47.972;7.830;2024-01-06T05:24:16;6.10;99.90
4207;DHT22;2117;47.972;7.830;2024-01-06T05:26:42;6.10;99.90
4207;DHT22;2117;47.972;7.830;2024-01-06T05:29:07;6.20;99.90
4207;DHT22;2117;47.972;7.830;2024-01-06T05:31:33;6.20;99.90
4207;DHT22;2117;47.972;7.830;2024-01-06T05:33:59;6.10;99.90
4207;DHT22;2117;47.972;7.830;2024-01-06T05:36:24;6.20;99.90
4207;DHT22;2117;47.972;7.830;2024-01-06T05:38:50;6.20;99.90
4207;DHT22;2117;47.972;7.830;2024-01-06T05:41:16;6.20;99.90
4207;DHT22;2117;47.972;7.830;2024-01-06T05:43:41;6.20;99.90
4207;DHT22;2117;47.972;7.830;2024-01-06T05:46:07;6.20;99.90
4207;DHT22;2117;47.972;7.830;2024-01-06T05:48:33;6.20;99.90
4207;DHT22;2117;47.972;7.830;2024-01-06T05:50:58;6.20;99.90
4207;DHT22;2117;47.972;7.830;2024-01-06T05:53:24;6.20;99.90
4207;DHT22;2117;47.972;7.830;2024-01-06T05:55:50;6.20;99.90
4207;DHT22;2117;47.972;7.830;2024-01-06T05:58:16;6.20;99.90
4207;DHT22;2117;47.972;7.830;2024-01-06T06:00:41;6.20;99.90
4207;DHT22;2117;47.972;7.830;2024-01-06T06:03:07;6.20;99.90
4207;DHT22;2117;47.972;7.830;2024-01-06T06:05:33;6.20;99.90
4207;DHT22;2117;47.972;7.830;2024-01-06T06:07:58;6.20;99.90
4207;DHT22;2117;47.972;7.830;2024-01-06T06:10:24;6.20;99.90
4207;DHT22;2117;47.972;7.830;2024-01-06T06:12:55;6.20;99.90
4207;DHT22;2117;47.972;7.830;2024-01-06T06:15:21;6.20;99.90
4207;DHT22;2117;47.972;7.830;2024-01-06T06:17:46;6.20;99.90
4207;DHT22;2117;47.972;7.830;2024-01-06T06:20:12;6.30;99.90
4207;DHT22;2117;47.972;7.830;2024-01-06T06:22:38;6.30;99.90
4207;DHT22;2117;47.972;7.830;2024-01-06T06:25:03;6.20;99.90
4207;DHT22;2117;47.972;7.830;2024-01-06T06:27:29;6.20;99.90
4207;DHT22;2117;47.972;7.830;2024-01-06T06:29:55;6.20;99.90
4207;DHT22;2117;47.972;7.830;2024-01-06T06:32:24;6.30;99.90
4207;DHT22;2117;47.972;7.830;2024-01-06T06:34:50;6.30;99.90
4207;DHT22;2117;47.972;7.830;2024-01-06T06:37:16;6.30;99.90
4207;DHT22;2117;47.972;7.830;2024-01-06T06:39:41;6.30;99.90
4207;DHT22;2117;47.972;7.830;2024-01-06T06:42:09;6.30;99.90
4207;DHT22;2117;47.972;7.830;2024-01-06T06:44:35;6.30;99.90
4207;DHT22;2117;47.972;7.830;2024-01-06T06:47:00;6.30;99.90
4207;DHT22;2117;47.972;7.830;2024-01-06T06:49:26;6.30;99.90
4207;DHT22;2117;47.972;7.830;2024-01-06T06:51:52;6.30;99.90
4207;DHT22;2117;47.972;7.830;2024-01-06T06:54:18;6.30;99.90
4207;DHT22;2117;47.972;7.830;2024-01-06T06:56:43;6.30;99.90
4207;DHT22;2117;47.972;7.830;2024-01-06T06:59:09;6.20;99.90
4207;DHT22;2117;47.972;7.830;2024-01-06T07:01:35;6.30;99.90
4207;DHT22;2117;47.972;7.830;2024-01-06T07:04:01;6.30;99.90
4207;DHT22;2117;47.972;7.830;2024-01-06T07:06:27;6.30;99.90
4207;DHT22;2117;47.972;7.830;2024-01-06T07:08:53;6.20;99.90
4207;DHT22;2117;47.972;7.830;2024-01-06T07:11:18;6.20;99.90
4207;DHT22;2117;47.972;7.830;2024-01-06T07:13:44;6.20;99.90
4207;DHT22;2117;47.972;7.830;2024-01-06T07:16:10;6.30;99.90
4207;DHT22;2117;47.972;7.830;2024-01-06T07:18:37;6.30;99.90
4207;DHT22;2117;47.972;7.830;2024-01-06T07:21:04;6.30;99.90
4207;DHT22;2117;47.972;7.830;2024-01-06T07:23:32;6.20;99.90
4207;DHT22;2117;47.972;7.830;2024-01-06T07:25:57;6.20;99.90
4207;DHT22;2117;47.972;7.830;2024-01-06T07:28:23;6.20;99.90
4207;DHT22;2117;47.972;7.830;2024-01-06T07:30:49;6.10;99.90
4207;DHT22;2117;47.972;7.830;2024-01-06T07:33:14;6.10;99.90
4207;DHT22;2117;47.972;7.830;2024-01-06T07:35:40;6.20;99.90
4207;DHT22;2117;47.972;7.830;2024-01-06T07:38:09;6.20;99.90
4207;DHT22;2117;47.972;7.830;2024-01-06T07:40:36;6.20;99.90
4207;DHT22;2117;47.972;7.830;2024-01-06T07:43:01;6.20;99.90
4207;DHT22;2117;47.972;7.830;2024-01-06T07:45:27;6.20;99.90
4207;DHT22;2117;47.972;7.830;2024-01-06T07:47:53;6.20;99.90
4207;DHT22;2117;47.972;7.830;2024-01-06T07:50:18;6.20;99.90
4207;DHT22;2117;47.972;7.830;2024-01-06T07:52:44;6.20;99.90
4207;DHT22;2117;47.972;7.830;2024-01-06T07:55:10;6.20;99.90
4207;DHT22;2117;47.972;7.830;2024-01-06T07:57:35;6.30;99.90
4207;DHT22;2117;47.972;7.830;2024-01-06T08:00:01;6.20;99.90
4207;DHT22;2117;47.972;7.830;2024-01-06T08:02:26;6.20;99.90
4207;DHT22;2117;47.972;7.830;2024-01-06T08:04:52;6.30;99.90
4207;DHT22;2117;47.972;7.830;2024-01-06T08:07:19;6.30;99.90
4207;DHT22;2117;47.972;7.830;2024-01-06T08:09:45;6.30;99.90
4207;DHT22;2117;47.972;7.830;2024-01-06T08:12:10;6.30;99.90
4207;DHT22;2117;47.972;7.830;2024-01-06T08:14:36;6.30;99.90
4207;DHT22;2117;47.972;7.830;2024-01-06T08:17:01;6.30;99.90
4207;DHT22;2117;47.972;7.830;2024-01-06T08:19:27;6.40;99.90
4207;DHT22;2117;47.972;7.830;2024-01-06T08:21:55;6.40;99.90
4207;DHT22;2117;47.972;7.830;2024-01-06T08:24:20;6.40;99.90
4207;DHT22;2117;47.972;7.830;2024-01-06T08:26:46;6.50;99.90
4207;DHT22;2117;47.972;7.830;2024-01-06T08:29:13;6.60;99.90
4207;DHT22;2117;47.972;7.830;2024-01-06T08:31:40;6.60;99.90
4207;DHT22;2117;47.972;7.830;2024-01-06T08:34:05;6.60;99.90
4207;DHT22;2117;47.972;7.830;2024-01-06T08:36:33;6.60;99.90
4207;DHT22;2117;47.972;7.830;2024-01-06T08:38:59;6.60;99.90
4207;DHT22;2117;47.972;7.830;2024-01-06T08:41:24;6.60;99.90
4207;DHT22;2117;47.972;7.830;2024-01-06T08:43:50;6.70;99.90
4207;DHT22;2117;47.972;7.830;2024-01-06T08:46:16;6.70;99.90
4207;DHT22;2117;47.972;7.830;2024-01-06T08:48:42;6.70;99.90
4207;DHT22;2117;47.972;7.830;2024-01-06T08:51:08;6.70;99.90
4207;DHT22;2117;47.972;7.830;2024-01-06T08:53:33;6.70;99.90
4207;DHT22;2117;47.972;7.830;2024-01-06T08:55:59;6.70;99.90
4207;DHT22;2117;47.972;7.830;2024-01-06T08:58:24;6.80;99.90
4207;DHT22;2117;47.972;7.830;2024-01-06T09:00:50;6.80;99.90
4207;DHT22;2117;47.972;7.830;2024-01-06T09:03:16;6.80;99.90
4207;DHT22;2117;47.972;7.830;2024-01-06T09:05:41;6.90;99.90
4207;DHT22;2117;47.972;7.830;2024-01-06T09:08:07;6.90;99.90
4207;DHT22;2117;47.972;7.830;2024-01-06T09:10:33;6.90;99.90
4207;DHT22;2117;47.972;7.830;2024-01-06T09:12:58;6.90;99.90
4207;DHT22;2117;47.972;7.830;2024-01-06T09:15:24;6.90;99.90
4207;DHT22;2117;47.972;7.830;2024-01-06T09:17:49;6.90;99.90
4207;DHT22;2117;47.972;7.830;2024-01-06T09:20:15;6.90;99.90
4207;DHT22;2117;47.972;7.830;2024-01-06T09:22:42;7.00;99.90
4207;DHT22;2117;47.972;7.830;2024-01-06T09:25:08;7.10;99.90
4207;DHT22;2117;47.972;7.830;2024-01-06T09:27:34;7.20;99.90
4207;DHT22;2117;47.972;7.830;2024-01-06T09:29:59;7.30;99.90
4207;DHT22;2117;47.972;7.830;2024-01-06T09:32:25;7.30;99.90
4207;DHT22;2117;47.972;7.830;2024-01-06T09:34:50;7.30;99.90
4207;DHT22;2117;47.972;7.830;2024-01-06T09:37:16;7.40;99.90
4207;DHT22;2117;47.972;7.830;2024-01-06T09:39:42;7.50;99.90
4207;DHT22;2117;47.972;7.830;2024-01-06T09:42:07;7.60;99.90
4207;DHT22;2117;47.972;7.830;2024-01-06T09:44:34;7.70;99.90
4207;DHT22;2117;47.972;7.830;2024-01-06T09:47:01;7.70;99.90
4207;DHT22;2117;47.972;7.830;2024-01-06T09:49:31;7.70;99.90
4207;DHT22;2117;47.972;7.830;2024-01-06T09:51:59;7.80;99.90
4207;DHT22;2117;47.972;7.830;2024-01-06T09:54:25;7.80;99.90
4207;DHT22;2117;47.972;7.830;2024-01-06T09:56:55;7.80;99.90
4207;DHT22;2117;47.972;7.830;2024-01-06T09:59:22;7.90;99.90
4207;DHT22;2117;47.972;7.830;2024-01-06T10:01:48;7.90;99.90
4207;DHT22;2117;47.972;7.830;2024-01-06T10:04:15;7.90;99.90
4207;DHT22;2117;47.972;7.830;2024-01-06T10:06:41;7.90;99.90
4207;DHT22;2117;47.972;7.830;2024-01-06T10:09:07;8.00;99.90
4207;DHT22;2117;47.972;7.830;2024-01-06T10:11:35;8.00;99.90
4207;DHT22;2117;47.972;7.830;2024-01-06T10:14:03;8.10;99.90
4207;DHT22;2117;47.972;7.830;2024-01-06T10:16:28;8.20;99.90
4207;DHT22;2117;47.972;7.830;2024-01-06T10:18:54;8.20;99.90
4207;DHT22;2117;47.972;7.830;2024-01-06T10:21:21;8.30;99.90
4207;DHT22;2117;47.972;7.830;2024-01-06T10:23:48;8.30;99.90
4207;DHT22;2117;47.972;7.830;2024-01-06T10:26:16;8.50;99.90
4207;DHT22;2117;47.972;7.830;2024-01-06T10:28:43;9.30;99.90
4207;DHT22;2117;47.972;7.830;2024-01-06T10:31:08;10.20;99.90
4207;DHT22;2117;47.972;7.830;2024-01-06T10:33:35;10.80;99.90
4207;DHT22;2117;47.972;7.830;2024-01-06T10:36:01;10.90;99.90
4207;DHT22;2117;47.972;7.830;2024-01-06T10:38:30;10.70;99.90
4207;DHT22;2117;47.972;7.830;2024-01-06T10:41:00;10.40;99.90
4207;DHT22;2117;47.972;7.830;2024-01-06T10:43:28;10.30;99.90
4207;DHT22;2117;47.972;7.830;2024-01-06T10:45:56;10.20;99.90
4207;DHT22;2117;47.972;7.830;2024-01-06T10:48:24;9.90;99.90
4207;DHT22;2117;47.972;7.830;2024-01-06T10:50:52;9.80;99.90
4207;DHT22;2117;47.972;7.830;2024-01-06T10:53:20;9.70;99.90
4207;DHT22;2117;47.972;7.830;2024-01-06T10:55:46;9.50;99.90
4207;DHT22;2117;47.972;7.830;2024-01-06T10:58:14;9.50;99.90
4207;DHT22;2117;47.972;7.830;2024-01-06T11:00:42;9.50;99.90
4207;DHT22;2117;47.972;7.830;2024-01-06T11:03:09;9.40;99.90
4207;DHT22;2117;47.972;7.830;2024-01-06T11:05:36;9.20;99.90
4207;DHT22;2117;47.972;7.830;2024-01-06T11:08:03;9.10;99.90
4207;DHT22;2117;47.972;7.830;2024-01-06T11:10:30;9.00;99.90
4207;DHT22;2117;47.972;7.830;2024-01-06T11:13:26;8.90;99.90
4207;DHT22;2117;47.972;7.830;2024-01-06T11:15:53;8.70;99.90
4207;DHT22;2117;47.972;7.830;2024-01-06T11:18:31;8.70;99.90
4207;DHT22;2117;47.972;7.830;2024-01-06T11:21:15;8.60;99.90
4207;DHT22;2117;47.972;7.830;2024-01-06T11:26:31;8.50;99.90
4207;DHT22;2117;47.972;7.830;2024-01-06T11:28:57;8.40;99.90
4207;DHT22;2117;47.972;7.830;2024-01-06T11:31:30;8.40;99.90
4207;DHT22;2117;47.972;7.830;2024-01-06T11:33:56;8.30;99.90
4207;DHT22;2117;47.972;7.830;2024-01-06T11:36:22;8.30;99.90
4207;DHT22;2117;47.972;7.830;2024-01-06T11:38:47;8.30;99.90
4207;DHT22;2117;47.972;7.830;2024-01-06T11:41:48;8.30;99.90
4207;DHT22;2117;47.972;7.830;2024-01-06T11:44:20;8.20;99.90
4207;DHT22;2117;47.972;7.830;2024-01-06T11:46:47;8.30;99.90
4207;DHT22;2117;47.972;7.830;2024-01-06T11:49:15;8.20;99.90
4207;DHT22;2117;47.972;7.830;2024-01-06T11:51:41;8.20;99.90
4207;DHT22;2117;47.972;7.830;2024-01-06T11:54:07;8.20;99.90
4207;DHT22;2117;47.972;7.830;2024-01-06T11:56:33;8.20;99.90
4207;DHT22;2117;47.972;7.830;2024-01-06T11:59:00;8.20;99.90
4207;DHT22;2117;47.972;7.830;2024-01-06T12:01:26;8.20;99.90
4207;DHT22;2117;47.972;7.830;2024-01-06T12:03:54;8.20;99.90
4207;DHT22;2117;47.972;7.830;2024-01-06T12:06:21;8.20;99.90
4207;DHT22;2117;47.972;7.830;2024-01-06T12:08:49;8.20;99.90
4207;DHT22;2117;47.972;7.830;2024-01-06T12:11:17;8.20;99.90
4207;DHT22;2117;47.972;7.830;2024-01-06T12:13:46;8.20;99.90
4207;DHT22;2117;47.972;7.830;2024-01-06T12:16:11;8.20;99.90
4207;DHT22;2117;47.972;7.830;2024-01-06T12:18:37;8.30;99.90
4207;DHT22;2117;47.972;7.830;2024-01-06T12:21:03;8.30;99.90
4207;DHT22;2117;47.972;7.830;2024-01-06T12:23:28;8.40;99.90
4207;DHT22;2117;47.972;7.830;2024-01-06T12:25:57;8.40;99.90
4207;DHT22;2117;47.972;7.830;2024-01-06T12:28:27;8.30;99.90
4207;DHT22;2117;47.972;7.830;2024-01-06T12:30:53;8.30;99.90
4207;DHT22;2117;47.972;7.830;2024-01-06T12:33:19;8.30;99.90
4207;DHT22;2117;47.972;7.830;2024-01-06T12:35:45;8.30;99.90
4207;DHT22;2117;47.972;7.830;2024-01-06T12:38:11;8.30;99.90
4207;DHT22;2117;47.972;7.830;2024-01-06T12:40:37;8.30;99.90
4207;DHT22;2117;47.972;7.830;2024-01-06T12:43:04;8.30;99.90
4207;DHT22;2117;47.972;7.830;2024-01-06T12:45:30;8.40;99.90
4207;DHT22;2117;47.972;7.830;2024-01-06T12:47:55;8.50;99.90
4207;DHT22;2117;47.972;7.830;2024-01-06T12:50:21;8.40;99.90
4207;DHT22;2117;47.972;7.830;2024-01-06T12:52:46;8.40;99.90
4207;DHT22;2117;47.972;7.830;2024-01-06T12:55:12;8.40;99.90
4207;DHT22;2117;47.972;7.830;2024-01-06T12:57:37;8.40;99.90
4207;DHT22;2117;47.972;7.830;2024-01-06T13:00:04;8.40;99.90
4207;DHT22;2117;47.972;7.830;2024-01-06T13:02:31;8.40;99.90
4207;DHT22;2117;47.972;7.830;2024-01-06T13:04:57;8.30;99.90
4207;DHT22;2117;47.972;7.830;2024-01-06T13:07:23;8.30;99.90
4207;DHT22;2117;47.972;7.830;2024-01-06T13:09:49;8.30;99.90
4207;DHT22;2117;47.972;7.830;2024-01-06T13:12:15;8.20;99.90
4207;DHT22;2117;47.972;7.830;2024-01-06T13:14:41;8.10;99.90
4207;DHT22;2117;47.972;7.830;2024-01-06T13:17:09;8.00;99.90
4207;DHT22;2117;47.972;7.830;2024-01-06T13:19:35;8.00;99.90
4207;DHT22;2117;47.972;7.830;2024-01-06T13:22:00;7.90;99.90
4207;DHT22;2117;47.972;7.830;2024-01-06T13:24:26;7.80;99.90
4207;DHT22;2117;47.972;7.830;2024-01-06T13:26:51;7.80;99.90
4207;DHT22;2117;47.972;7.830;2024-01-06T13:29:17;7.70;99.90
4207;DHT22;2117;47.972;7.830;2024-01-06T13:31:44;7.70;99.90
4207;DHT22;2117;47.972;7.830;2024-01-06T13:34:09;7.60;99.90
4207;DHT22;2117;47.972;7.830;2024-01-06T13:36:35;7.60;99.90
4207;DHT22;2117;47.972;7.830;2024-01-06T13:39:01;7.50;99.90
4207;DHT22;2117;47.972;7.830;2024-01-06T13:41:29;7.60;99.90
4207;DHT22;2117;47.972;7.830;2024-01-06T13:43:54;7.50;99.90
4207;DHT22;2117;47.972;7.830;2024-01-06T13:46:20;7.40;99.90
4207;DHT22;2117;47.972;7.830;2024-01-06T13:48:46;7.50;99.90
4207;DHT22;2117;47.972;7.830;2024-01-06T13:51:11;7.40;99.90
4207;DHT22;2117;47.972;7.830;2024-01-06T13:53:37;7.40;99.90
4207;DHT22;2117;47.972;7.830;2024-01-06T13:56:03;7.40;99.90
4207;DHT22;2117;47.972;7.830;2024-01-06T13:58:28;7.50;99.90
4207;DHT22;2117;47.972;7.830;2024-01-06T14:00:54;7.60;99.90
4207;DHT22;2117;47.972;7.830;2024-01-06T14:03:20;7.60;99.90
4207;DHT22;2117;47.972;7.830;2024-01-06T14:05:47;7.60;99.90
4207;DHT22;2117;47.972;7.830;2024-01-06T14:08:13;7.60;99.90
4207;DHT22;2117;47.972;7.830;2024-01-06T14:10:39;7.60;99.90
4207;DHT22;2117;47.972;7.830;2024-01-06T14:13:05;7.60;99.90
4207;DHT22;2117;47.972;7.830;2024-01-06T14:15:32;7.50;99.90
4207;DHT22;2117;47.972;7.830;2024-01-06T14:17:59;7.60;99.90
4207;DHT22;2117;47.972;7.830;2024-01-06T14:20:25;7.60;99.90
4207;DHT22;2117;47.972;7.830;2024-01-06T14:22:50;7.50;99.90
4207;DHT22;2117;47.972;7.830;2024-01-06T14:25:16;7.70;99.90
4207;DHT22;2117;47.972;7.830;2024-01-06T14:27:46;7.90;99.90
4207;DHT22;2117;47.972;7.830;2024-01-06T14:30:12;7.90;99.90
4207;DHT22;2117;47.972;7.830;2024-01-06T14:32:37;8.00;99.90
4207;DHT22;2117;47.972;7.830;2024-01-06T14:35:06;8.10;99.90
4207;DHT22;2117;47.972;7.830;2024-01-06T14:37:33;8.30;99.90
4207;DHT22;2117;47.972;7.830;2024-01-06T14:39:58;8.30;99.90
4207;DHT22;2117;47.972;7.830;2024-01-06T14:42:24;8.70;99.90
4207;DHT22;2117;47.972;7.830;2024-01-06T14:44:50;9.20;99.90
4207;DHT22;2117;47.972;7.830;2024-01-06T14:47:15;9.10;99.90
4207;DHT22;2117;47.972;7.830;2024-01-06T14:49:41;8.80;99.90
4207;DHT22;2117;47.972;7.830;2024-01-06T14:52:06;8.70;99.90
4207;DHT22;2117;47.972;7.830;2024-01-06T14:54:32;9.10;99.90
4207;DHT22;2117;47.972;7.830;2024-01-06T14:56:59;9.00;99.90
4207;DHT22;2117;47.972;7.830;2024-01-06T14:59:25;9.10;99.90
4207;DHT22;2117;47.972;7.830;2024-01-06T15:01:50;8.90;99.90
4207;DHT22;2117;47.972;7.830;2024-01-06T15:04:16;8.60;99.90
4207;DHT22;2117;47.972;7.830;2024-01-06T15:06:43;8.30;99.90
4207;DHT22;2117;47.972;7.830;2024-01-06T15:09:09;8.00;99.90
4207;DHT22;2117;47.972;7.830;2024-01-06T15:11:35;8.00;99.90
4207;DHT22;2117;47.972;7.830;2024-01-06T15:14:01;8.00;99.90
4207;DHT22;2117;47.972;7.830;2024-01-06T15:16:30;7.70;99.90
4207;DHT22;2117;47.972;7.830;2024-01-06T15:18:55;7.60;99.90
4207;DHT22;2117;47.972;7.830;2024-01-06T15:21:24;7.60;99.90
4207;DHT22;2117;47.972;7.830;2024-01-06T15:23:50;7.50;99.90
4207;DHT22;2117;47.972;7.830;2024-01-06T15:26:26;7.50;99.90
4207;DHT22;2117;47.972;7.830;2024-01-06T15:28:51;7.40;99.90
4207;DHT22;2117;47.972;7.830;2024-01-06T15:31:17;7.40;99.90
4207;DHT22;2117;47.972;7.830;2024-01-06T15:33:43;7.40;99.90
4207;DHT22;2117;47.972;7.830;2024-01-06T15:36:09;7.30;99.90
4207;DHT22;2117;47.972;7.830;2024-01-06T15:38:35;7.30;99.90
4207;DHT22;2117;47.972;7.830;2024-01-06T15:41:00;7.30;99.90
4207;DHT22;2117;47.972;7.830;2024-01-06T15:43:26;7.30;99.90
4207;DHT22;2117;47.972;7.830;2024-01-06T15:45:52;7.20;99.90
4207;DHT22;2117;47.972;7.830;2024-01-06T15:48:19;7.20;99.90
4207;DHT22;2117;47.972;7.830;2024-01-06T15:50:44;7.20;99.90
4207;DHT22;2117;47.972;7.830;2024-01-06T15:53:10;7.20;99.90
4207;DHT22;2117;47.972;7.830;2024-01-06T15:55:39;7.20;99.90
4207;DHT22;2117;47.972;7.830;2024-01-06T15:58:06;7.10;99.90
4207;DHT22;2117;47.972;7.830;2024-01-06T16:00:31;7.00;99.90
4207;DHT22;2117;47.972;7.830;2024-01-06T16:02:57;7.00;99.90
4207;DHT22;2117;47.972;7.830;2024-01-06T16:05:24;7.00;99.90
4207;DHT22;2117;47.972;7.830;2024-01-06T16:07:50;7.00;99.90
4207;DHT22;2117;47.972;7.830;2024-01-06T16:10:18;7.00;99.90
4207;DHT22;2117;47.972;7.830;2024-01-06T16:12:44;7.00;99.90